Time;durP1;ratioP1;P1;durP2;ratioP2;P2;SDS_P1;SDS_P2;PMS_P1;PMS_P2;Temp;Humidity;BMP_temperature;BMP_pressure;BME280_temperature;BME280_humidity;BME280_pressure;Samples;Min_cycle;Max_cycle;Signal;HPM_P1;HPM_P2
2023/04/26 09:55:28;;;;;;;6.35;1.70;;;9.50;50.00;;;;;;4996977;23;20046;-88
2023/04/26 09:58:09;;;;;;;4.45;1.33;;;9.50;51.60;;;;;;4923227;29;20070;-89
2023/04/26 10:00:38;;;;;;;5.43;1.20;;;9.90;45.90;;;;;;4922972;29;20043;-89
2023/04/26 10:03:07;;;;;;;1.75;0.90;;;10.10;45.50;;;;;;4922046;29;20408;-88
2023/04/26 10:05:36;;;;;;;3.63;1.23;;;10.10;46.20;;;;;;4922514;28;20044;-89
2023/04/26 10:08:04;;;;;;;4.97;1.20;;;10.40;49.10;;;;;;4921834;29;20493;-88
2023/04/26 10:10:32;;;;;;;4.95;1.30;;;10.50;48.10;;;;;;4937921;29;20524;-88
2023/04/26 10:12:59;;;;;;;5.05;1.52;;;10.50;48.90;;;;;;4922943;29;20043;-88
2023/04/26 10:15:27;;;;;;;4.13;1.17;;;10.20;47.40;;;;;;4938683;29;20055;-89
2023/04/26 10:17:57;;;;;;;3.77;1.10;;;9.90;45.60;;;;;;4922408;29;20102;-88
2023/04/26 10:20:28;;;;;;;5.97;1.33;;;9.60;46.60;;;;;;4938623;29;20494;-88
2023/04/26 10:23:02;;;;;;;5.63;1.35;;;9.50;47.40;;;;;;4938710;29;20051;-88
2023/04/26 10:25:41;;;;;;;3.70;1.10;;;9.40;45.80;;;;;;4938395;28;20055;-88
2023/04/26 10:28:08;;;;;;;2.70;1.00;;;9.70;47.40;;;;;;4921127;29;20054;-88
2023/04/26 10:30:54;;;;;;;4.23;0.83;;;10.00;47.60;;;;;;4922353;29;20074;-88
2023/04/26 10:33:22;;;;;;;5.65;1.42;;;10.10;46.00;;;;;;4921671;29;20454;-88
2023/04/26 10:36:09;;;;;;;4.05;1.13;;;10.00;45.60;;;;;;4921599;28;20055;-88
2023/04/26 10:38:38;;;;;;;3.42;1.30;;;10.00;46.70;;;;;;4922359;29;20043;-88
2023/04/26 10:41:42;;;;;;;5.80;1.40;;;10.00;47.90;;;;;;4938241;29;20039;-88
2023/04/26 10:44:41;;;;;;;5.50;1.10;;;9.90;45.40;;;;;;4923443;28;20505;-88
2023/04/26 10:47:23;;;;;;;4.43;1.25;;;9.80;45.80;;;;;;4937918;29;20442;-88
2023/04/26 10:49:50;;;;;;;6.03;1.60;;;9.80;47.80;;;;;;4922524;29;20046;-89
2023/04/26 10:52:21;;;;;;;5.35;1.20;;;9.80;46.00;;;;;;4922138;29;20051;-88
2023/04/26 10:54:56;;;;;;;4.15;1.20;;;9.80;45.80;;;;;;4936909;29;20544;-88
2023/04/26 10:57:50;;;;;;;5.17;1.07;;;9.80;45.80;;;;;;4936333;29;20044;-88
2023/04/26 11:00:20;;;;;;;6.55;1.05;;;9.70;45.70;;;;;;4922066;29;20052;-88
2023/04/26 11:03:08;;;;;;;7.97;1.10;;;9.70;45.00;;;;;;4921089;28;20095;-88
2023/04/26 11:05:36;;;;;;;4.78;1.10;;;9.70;46.10;;;;;;4939207;29;20051;-89
2023/04/26 11:08:14;;;;;;;3.92;1.27;;;9.70;44.70;;;;;;4922225;29;20107;-88
2023/04/26 11:10:41;;;;;;;3.90;1.30;;;9.60;44.00;;;;;;4937648;29;20047;-88
2023/04/26 11:13:08;;;;;;;3.05;1.10;;;9.60;45.00;;;;;;4937579;29;20078;-88
2023/04/26 11:15:35;;;;;;;3.33;1.48;;;9.70;44.90;;;;;;4921465;29;20068;-89
2023/04/26 11:18:03;;;;;;;3.20;0.93;;;10.00;45.20;;;;;;4921224;29;20040;-89
2023/04/26 11:20:34;;;;;;;5.55;1.30;;;10.40;46.10;;;;;;4937399;29;20126;-88
2023/04/26 11:23:01;;;;;;;3.60;1.40;;;10.70;46.60;;;;;;4921878;29;20058;-88
2023/04/26 11:25:28;;;;;;;6.63;1.20;;;10.80;44.00;;;;;;4921299;29;20106;-88
2023/04/26 11:28:00;;;;;;;5.63;1.30;;;10.80;42.70;;;;;;4921625;29;20055;-88
2023/04/26 11:30:32;;;;;;;4.95;1.30;;;10.50;42.50;;;;;;4922108;29;20110;-88
2023/04/26 11:33:00;;;;;;;4.03;1.00;;;10.20;43.80;;;;;;4921929;29;20049;-89
2023/04/26 11:35:28;;;;;;;4.17;1.23;;;10.00;43.30;;;;;;4937506;29;20445;-89
2023/04/26 11:38:08;;;;;;;5.20;1.90;;;10.00;43.80;;;;;;4921947;28;20497;-89
2023/04/26 11:40:37;;;;;;;10.93;4.53;;;10.10;47.00;;;;;;4940510;28;20054;-88
2023/04/26 11:43:06;;;;;;;8.27;2.13;;;10.40;46.20;;;;;;4925397;29;20043;-88
2023/04/26 11:45:35;;;;;;;5.22;1.25;;;10.60;44.70;;;;;;4925546;29;20114;-88
2023/04/26 11:48:07;;;;;;;3.67;0.90;;;10.70;44.20;;;;;;4940983;29;20054;-88
2023/04/26 11:50:36;;;;;;;4.05;1.10;;;10.60;43.00;;;;;;4925167;29;20043;-89
2023/04/26 11:53:05;;;;;;;10.82;4.68;;;10.60;44.30;;;;;;4921281;28;20044;-88
2023/04/26 11:55:34;;;;;;;5.13;1.40;;;10.60;43.80;;;;;;4925172;29;20103;-88
2023/04/26 11:58:09;;;;;;;4.20;1.80;;;10.60;43.60;;;;;;4925315;29;20043;-88
2023/04/26 12:00:36;;;;;;;5.73;1.30;;;10.60;45.10;;;;;;4940933;29;20047;-88
2023/04/26 12:03:09;;;;;;;4.57;1.17;;;10.50;44.00;;;;;;4924879;29;20492;-88
2023/04/26 12:05:37;;;;;;;5.20;1.30;;;10.50;45.10;;;;;;4925204;29;20481;-88
2023/04/26 12:08:04;;;;;;;5.13;1.05;;;10.50;44.80;;;;;;4940790;29;20442;-88
2023/04/26 12:10:35;;;;;;;4.13;0.98;;;10.50;45.10;;;;;;4940653;29;20047;-88
2023/04/26 12:13:02;;;;;;;4.63;1.27;;;10.20;44.20;;;;;;4924918;29;20059;-88
2023/04/26 12:15:36;;;;;;;4.10;1.10;;;10.20;43.00;;;;;;4924942;29;20043;-88
2023/04/26 12:18:08;;;;;;;5.53;1.38;;;10.00;43.90;;;;;;4924773;28;20048;-89
2023/04/26 12:20:38;;;;;;;6.50;1.25;;;10.20;44.60;;;;;;4922949;29;20126;-89
2023/04/26 12:23:13;;;;;;;4.28;1.27;;;10.40;45.00;;;;;;4940579;29;20047;-88
2023/04/26 12:25:41;;;;;;;6.20;1.40;;;10.50;44.60;;;;;;4938588;28;20044;-88
2023/04/26 12:28:12;;;;;;;7.10;2.20;;;10.50;44.90;;;;;;4923769;29;20043;-89
2023/04/26 12:30:39;;;;;;;7.88;1.48;;;10.40;47.00;;;;;;4924298;28;20089;-88
2023/04/26 12:33:07;;;;;;;5.70;1.42;;;10.30;45.30;;;;;;4923213;29;20039;-88
2023/04/26 12:35:43;;;;;;;4.35;1.30;;;10.20;45.90;;;;;;4924923;29;20043;-88
2023/04/26 12:38:10;;;;;;;5.83;1.70;;;10.30;45.70;;;;;;4941242;29;20031;-88
2023/04/26 12:40:38;;;;;;;5.50;1.27;;;10.40;48.80;;;;;;4924380;29;20039;-88
2023/04/26 12:43:06;;;;;;;5.82;1.30;;;10.50;47.80;;;;;;4938649;28;20043;-88
2023/04/26 12:45:33;;;;;;;4.82;1.20;;;10.50;47.30;;;;;;4923837;29;20098;-88
2023/04/26 12:48:00;;;;;;;3.72;0.95;;;10.50;45.00;;;;;;4924413;29;20070;-87
2023/04/26 12:50:28;;;;;;;3.93;1.20;;;10.40;44.20;;;;;;4921935;29;20110;-89
2023/04/26 12:52:55;;;;;;;5.82;1.05;;;10.20;44.10;;;;;;4924047;29;20043;-88
2023/04/26 12:55:22;;;;;;;4.82;1.20;;;10.00;43.90;;;;;;4939730;28;20047;-88
2023/04/26 12:57:49;;;;;;;4.18;1.40;;;10.00;43.30;;;;;;4923463;29;20044;-88
2023/04/26 13:00:17;;;;;;;6.05;2.00;;;10.00;43.80;;;;;;4923036;28;20075;-88
2023/04/26 13:02:45;;;;;;;4.63;1.43;;;10.20;44.70;;;;;;4939311;29;20463;-88
2023/04/26 13:05:13;;;;;;;4.10;1.25;;;10.20;43.90;;;;;;4938933;29;20133;-89
2023/04/26 13:07:41;;;;;;;5.60;1.80;;;10.20;43.50;;;;;;4924111;29;20048;-89
2023/04/26 13:10:09;;;;;;;5.10;1.30;;;10.30;46.50;;;;;;4938932;28;20043;-88
2023/04/26 13:12:39;;;;;;;8.82;1.38;;;10.30;48.60;;;;;;4932147;28;20405;-89
2023/04/26 13:15:07;;;;;;;4.47;1.33;;;10.20;48.40;;;;;;4938121;29;20039;-89
2023/04/26 13:17:36;;;;;;;4.88;1.30;;;10.10;49.60;;;;;;4932399;29;20039;-88
2023/04/26 13:20:05;;;;;;;7.63;1.70;;;10.10;49.20;;;;;;4921368;29;20046;-88
2023/04/26 13:22:35;;;;;;;7.00;1.50;;;10.20;47.80;;;;;;4921097;29;20564;-88
2023/04/26 13:25:03;;;;;;;5.47;1.80;;;10.30;47.70;;;;;;4936900;29;20504;-88
2023/04/26 13:27:31;;;;;;;5.70;1.30;;;10.50;47.30;;;;;;4922110;29;20073;-89
2023/04/26 13:29:58;;;;;;;15.07;2.53;;;10.60;47.40;;;;;;4938624;29;20041;-88
2023/04/26 13:32:25;;;;;;;5.72;1.35;;;10.70;48.10;;;;;;4922229;29;20047;-88
2023/04/26 13:34:53;;;;;;;5.28;1.63;;;10.70;45.90;;;;;;4922050;29;20079;-87
2023/04/26 13:37:20;;;;;;;4.57;1.20;;;10.60;47.90;;;;;;4937433;28;20049;-87
2023/04/26 13:39:48;;;;;;;6.07;1.23;;;10.50;43.60;;;;;;4938630;29;20039;-87
2023/04/26 13:42:16;;;;;;;7.93;1.95;;;10.30;45.10;;;;;;4923000;29;20126;-88
2023/04/26 13:44:43;;;;;;;17.38;7.38;;;10.50;45.30;;;;;;4924833;29;20114;-93
2023/04/26 13:47:10;;;;;;;5.90;1.75;;;10.50;45.50;;;;;;4921923;29;20044;-93
2023/04/26 13:49:40;;;;;;;7.15;2.40;;;10.80;47.90;;;;;;4925473;29;20047;-94
2023/04/26 13:52:07;;;;;;;4.47;1.07;;;11.10;44.30;;;;;;4925402;29;20055;-93
2023/04/26 13:54:35;;;;;;;8.10;1.85;;;11.20;45.20;;;;;;4925329;29;20436;-93
2023/04/26 13:57:03;;;;;;;12.45;4.03;;;11.20;43.30;;;;;;4925249;29;20043;-92
2023/04/26 13:59:30;;;;;;;14.80;5.22;;;11.10;44.10;;;;;;4924640;29;20094;-91
2023/04/26 14:01:58;;;;;;;11.90;3.60;;;10.90;43.20;;;;;;4924901;29;20138;-93
2023/04/26 14:04:25;;;;;;;5.90;3.57;;;11.00;45.60;;;;;;4935005;29;20054;-93
2023/04/26 14:06:53;;;;;;;4.28;1.33;;;10.80;44.30;;;;;;4924717;29;20568;-92
2023/04/26 14:09:20;;;;;;;6.50;1.65;;;10.70;43.40;;;;;;4940538;29;20111;-93
2023/04/26 14:11:47;;;;;;;4.43;1.25;;;10.70;43.90;;;;;;4924420;29;20063;-94
2023/04/26 14:14:26;;;;;;;5.40;2.00;;;10.70;43.60;;;;;;4923658;29;20047;-92
2023/04/26 14:16:53;;;;;;;7.20;1.27;;;10.70;45.00;;;;;;4922030;29;20130;-90
2023/04/26 14:19:20;;;;;;;4.70;1.63;;;10.90;45.00;;;;;;4938822;29;20544;-91
2023/04/26 14:21:47;;;;;;;4.57;1.60;;;11.00;44.60;;;;;;4923103;29;20057;-91
2023/04/26 14:24:14;;;;;;;7.70;2.80;;;11.00;44.30;;;;;;4939134;29;20047;-91
2023/04/26 14:26:41;;;;;;;5.90;2.00;;;11.00;44.40;;;;;;4939037;29;20051;-91
2023/04/26 14:29:08;;;;;;;8.23;1.83;;;10.90;44.10;;;;;;4923130;29;20054;-91
2023/04/26 14:31:36;;;;;;;4.75;1.15;;;10.80;45.50;;;;;;4921201;29;20102;-91
2023/04/26 14:34:03;;;;;;;8.43;1.75;;;10.80;44.00;;;;;;4939137;29;20053;-92
2023/04/26 14:36:32;;;;;;;7.72;1.50;;;10.70;45.30;;;;;;4921017;29;20137;-91
2023/04/26 14:38:59;;;;;;;8.27;2.25;;;10.60;43.60;;;;;;4931109;29;20035;-90
2023/04/26 14:41:26;;;;;;;7.20;1.67;;;10.70;44.50;;;;;;4923846;29;20036;-92
2023/04/26 14:43:53;;;;;;;8.13;2.15;;;10.80;43.80;;;;;;4926525;29;20145;-93
2023/04/26 14:46:23;;;;;;;7.03;1.55;;;10.80;43.90;;;;;;4928884;29;20146;-95
2023/04/26 14:53:18;;;;;;;4.82;1.55;;;11.00;45.80;;;;;;4959646;29;20098;-92
2023/04/26 14:55:56;;;;;;;7.33;1.60;;;10.60;45.60;;;;;;4928483;29;20547;-95
2023/04/26 14:58:25;;;;;;;8.10;1.73;;;10.50;46.10;;;;;;4945122;29;20122;-92
2023/04/26 15:00:53;;;;;;;5.93;1.40;;;10.50;47.10;;;;;;4925518;29;20075;-94
2023/04/26 15:07:22;;;;;;;6.57;2.47;;;10.20;45.50;;;;;;4963378;29;20127;-94
2023/04/26 15:14:53;;;;;;;10.02;2.53;;;10.10;47.80;;;;;;4963715;28;20081;-96
2023/04/26 15:17:31;;;;;;;7.40;2.05;;;10.20;47.20;;;;;;4934050;29;20115;-93
2023/04/26 15:19:59;;;;;;;7.15;2.13;;;10.20;45.50;;;;;;4927995;29;20051;-93
2023/04/26 15:22:37;;;;;;;6.43;1.70;;;10.30;45.20;;;;;;4940188;29;20047;-94
2023/04/26 15:25:05;;;;;;;7.50;1.70;;;10.20;43.80;;;;;;4926002;29;20047;-96
2023/04/26 15:27:36;;;;;;;7.10;1.88;;;10.30;45.30;;;;;;4928196;29;20532;-95
2023/04/26 15:30:12;;;;;;;4.80;1.50;;;10.40;43.60;;;;;;4930271;29;20047;-95
2023/04/26 15:32:40;;;;;;;10.27;2.25;;;10.60;44.30;;;;;;4944523;29;20094;-94
2023/04/26 15:35:15;;;;;;;4.30;1.50;;;10.60;42.40;;;;;;4926682;29;20057;-94
2023/04/26 15:37:42;;;;;;;6.17;1.83;;;10.50;43.40;;;;;;4927506;29;20047;-95
2023/04/26 15:40:11;;;;;;;6.20;1.75;;;10.60;44.40;;;;;;4944534;29;20055;-95
2023/04/26 15:47:02;;;;;;;5.13;1.70;;;10.50;43.70;;;;;;4957549;29;20104;-94
2023/04/26 15:49:30;;;;;;;4.10;1.65;;;10.30;43.80;;;;;;4939602;29;20150;-94
2023/04/26 15:51:57;;;;;;;4.30;1.70;;;10.30;45.00;;;;;;4923449;29;20078;-93
2023/04/26 15:54:27;;;;;;;4.70;1.63;;;10.20;45.30;;;;;;4939502;29;20051;-94
2023/04/26 15:56:54;;;;;;;6.85;1.95;;;10.30;47.50;;;;;;4923800;29;20086;-93
2023/04/26 15:59:22;;;;;;;4.97;1.27;;;10.40;46.00;;;;;;4925028;29;20412;-93
2023/04/26 16:01:49;;;;;;;3.70;1.42;;;10.40;45.40;;;;;;4940394;29;20043;-92
2023/04/26 16:04:19;;;;;;;6.53;1.40;;;10.50;45.30;;;;;;4923431;29;20102;-93
2023/04/26 16:06:46;;;;;;;7.47;2.05;;;10.50;45.20;;;;;;4923058;29;20051;-94
2023/04/26 16:09:14;;;;;;;4.40;1.40;;;10.50;46.00;;;;;;4923676;28;20048;-94
2023/04/26 16:11:51;;;;;;;7.10;1.50;;;10.50;43.90;;;;;;4925011;29;20055;-94
2023/04/26 16:14:22;;;;;;;7.43;1.40;;;10.30;43.10;;;;;;4923535;29;20422;-94
2023/04/26 16:16:49;;;;;;;5.73;1.90;;;10.20;43.30;;;;;;4926864;29;20047;-95
2023/04/26 16:19:20;;;;;;;8.32;1.55;;;10.00;43.80;;;;;;4928419;29;20118;-96
2023/04/26 16:29:37;;;;;;;7.10;1.83;;;9.90;46.10;;;;;;4878551;29;20145;-96
2023/04/26 16:47:02;;;;;;;7.97;3.03;;;10.00;47.40;;;;;;2765954;23;20300;-93
2023/04/26 16:56:45;;;;;;;10.35;3.72;;;9.70;46.60;;;;;;5530159;23;20044;-96
2023/04/26 17:03:10;;;;;;;5.97;1.70;;;9.70;46.40;;;;;;4870413;29;20042;-96
2023/04/26 17:12:19;;;;;;;6.82;1.70;;;9.60;47.60;;;;;;5222144;23;20078;-96
2023/04/26 17:14:47;;;;;;;6.88;1.52;;;9.50;46.60;;;;;;4929248;29;20044;-95
2023/04/26 17:17:18;;;;;;;8.48;1.73;;;9.50;46.40;;;;;;4918087;29;20047;-96
2023/04/26 17:19:52;;;;;;;4.63;1.37;;;9.60;46.10;;;;;;4917424;29;20079;-96
2023/04/26 17:22:56;;;;;;;8.15;1.60;;;9.50;45.80;;;;;;5080726;23;20051;-96
2023/04/26 17:32:36;;;;;;;8.48;2.83;;;9.60;47.60;;;;;;6025575;23;20023;-95
2023/04/26 17:35:07;;;;;;;10.60;2.80;;;9.50;48.50;;;;;;4878477;29;20029;-95
2023/04/26 17:37:48;;;;;;;9.88;2.63;;;9.50;47.60;;;;;;4884634;29;20060;-96
2023/04/26 17:40:30;;;;;;;10.68;2.63;;;9.40;47.90;;;;;;4888225;29;20053;-94
2023/04/26 17:42:58;;;;;;;8.98;2.47;;;9.40;47.80;;;;;;4888607;29;20049;-96
2023/04/26 17:45:26;;;;;;;6.60;1.65;;;9.40;47.40;;;;;;4888568;29;20052;-95
2023/04/26 17:47:53;;;;;;;7.63;2.63;;;9.30;45.50;;;;;;4888442;29;20143;-94
2023/04/26 17:50:22;;;;;;;9.48;3.65;;;9.10;45.90;;;;;;4873361;29;20521;-95
2023/04/26 17:52:49;;;;;;;10.98;4.25;;;9.10;46.30;;;;;;4876584;29;20045;-96
2023/04/26 17:55:16;;;;;;;15.10;6.40;;;9.10;46.80;;;;;;4893147;29;20040;-94
2023/04/26 17:57:44;;;;;;;14.02;4.72;;;9.10;46.40;;;;;;4884830;29;20040;-95
2023/04/26 18:00:11;;;;;;;9.10;3.23;;;9.10;46.60;;;;;;4870148;29;20049;-94
2023/04/26 18:02:40;;;;;;;10.75;3.15;;;9.20;46.90;;;;;;4870010;29;20080;-95
2023/04/26 18:05:10;;;;;;;14.68;4.95;;;9.20;47.80;;;;;;4869380;29;20418;-95
2023/04/26 18:07:37;;;;;;;13.73;4.60;;;9.20;48.90;;;;;;4869537;29;20052;-95
2023/04/26 18:10:05;;;;;;;9.65;3.42;;;9.10;48.90;;;;;;4872971;29;20146;-95
2023/04/26 18:12:32;;;;;;;10.27;3.60;;;9.00;48.60;;;;;;4873554;29;20059;-95
2023/04/26 18:15:00;;;;;;;11.65;3.25;;;8.90;51.10;;;;;;4869956;29;20080;-93
2023/04/26 18:17:27;;;;;;;9.60;2.85;;;8.90;49.60;;;;;;4869738;29;20049;-95
2023/04/26 18:19:55;;;;;;;6.93;1.60;;;8.70;49.20;;;;;;4869567;29;20108;-94
2023/04/26 18:22:22;;;;;;;8.07;2.42;;;8.70;51.70;;;;;;4870146;29;20040;-93
2023/04/26 18:24:49;;;;;;;7.57;2.00;;;8.70;52.80;;;;;;4870379;29;20056;-93
2023/04/26 18:27:16;;;;;;;8.70;2.20;;;8.70;53.00;;;;;;4869320;29;20087;-93
2023/04/26 18:29:43;;;;;;;8.82;2.70;;;8.60;53.80;;;;;;4881269;29;20515;-90
2023/04/26 18:32:11;;;;;;;8.38;2.88;;;8.60;54.80;;;;;;4880626;29;20049;-91
2023/04/26 18:34:38;;;;;;;21.77;6.93;;;8.50;53.20;;;;;;4899186;29;20052;-92
2023/04/26 18:37:06;;;;;;;25.83;8.60;;;8.50;53.00;;;;;;4899244;29;20064;-92
2023/04/26 18:39:33;;;;;;;23.45;7.22;;;8.50;51.80;;;;;;4892258;29;20132;-92
2023/04/26 18:42:03;;;;;;;12.75;3.88;;;8.50;52.50;;;;;;4897173;29;20049;-92
2023/04/26 18:44:30;;;;;;;19.10;5.00;;;8.50;53.40;;;;;;4883519;29;20151;-90
2023/04/26 18:46:57;;;;;;;10.38;3.17;;;8.50;53.70;;;;;;4898702;29;20451;-91
2023/04/26 18:49:27;;;;;;;14.93;5.60;;;8.50;54.00;;;;;;4883330;29;20086;-91
2023/04/26 18:51:56;;;;;;;17.40;5.45;;;8.50;53.60;;;;;;4884768;29;20058;-92
2023/04/26 18:54:25;;;;;;;8.90;3.20;;;8.50;52.40;;;;;;4899350;29;20072;-93
2023/04/26 18:56:52;;;;;;;8.25;2.72;;;8.50;53.60;;;;;;4868094;29;20083;-92
2023/04/26 18:59:20;;;;;;;9.57;2.75;;;8.50;55.50;;;;;;4889160;29;20056;-92
2023/04/26 19:01:47;;;;;;;16.73;5.57;;;8.50;56.30;;;;;;4886940;29;20052;-92
2023/04/26 19:04:15;;;;;;;20.02;7.07;;;8.50;54.20;;;;;;4899116;29;20056;-93
2023/04/26 19:06:42;;;;;;;12.10;4.35;;;8.50;55.00;;;;;;4899205;29;20048;-92
2023/04/26 19:09:12;;;;;;;11.77;3.22;;;8.50;54.90;;;;;;4876797;29;20468;-94
2023/04/26 19:11:39;;;;;;;10.73;3.80;;;8.50;56.00;;;;;;4898830;29;20419;-92
2023/04/26 19:14:06;;;;;;;10.20;3.27;;;8.50;57.20;;;;;;4898847;29;20516;-92
2023/04/26 19:16:37;;;;;;;12.27;4.18;;;8.40;57.20;;;;;;4914644;29;20053;-93
2023/04/26 19:19:04;;;;;;;14.02;4.32;;;8.40;56.90;;;;;;4867901;29;20577;-92
2023/04/26 19:21:32;;;;;;;15.80;4.55;;;8.40;58.10;;;;;;4867425;29;20143;-91
2023/04/26 19:23:59;;;;;;;12.55;3.90;;;8.30;58.60;;;;;;4867116;29;20139;-91
2023/04/26 19:26:26;;;;;;;13.07;4.33;;;8.30;59.10;;;;;;4867656;29;20048;-91
2023/04/26 19:28:54;;;;;;;9.25;3.70;;;8.20;60.40;;;;;;4867369;29;20041;-91
2023/04/26 19:31:21;;;;;;;9.38;3.83;;;8.20;60.40;;;;;;4872935;29;20041;-91
2023/04/26 19:33:49;;;;;;;11.40;3.65;;;8.10;60.30;;;;;;4877126;29;20052;-91
2023/04/26 19:36:16;;;;;;;13.20;4.40;;;8.00;59.90;;;;;;4898255;29;20048;-91
2023/04/26 19:38:43;;;;;;;12.63;4.27;;;8.00;59.70;;;;;;4898733;29;20101;-90
2023/04/26 19:41:10;;;;;;;9.95;3.63;;;7.90;59.80;;;;;;4887420;29;20116;-90
2023/04/26 19:43:37;;;;;;;11.77;3.78;;;7.90;58.60;;;;;;4898486;29;20448;-90
2023/04/26 19:46:14;;;;;;;10.80;3.67;;;7.90;59.50;;;;;;4886794;29;20144;-90
2023/04/26 19:48:41;;;;;;;11.45;3.72;;;7.90;57.80;;;;;;4897958;29;20072;-90
2023/04/26 19:51:15;;;;;;;8.73;2.83;;;7.90;58.00;;;;;;4888651;29;20151;-90
2023/04/26 19:53:45;;;;;;;8.85;3.20;;;7.90;58.40;;;;;;4898252;29;20147;-90
2023/04/26 19:56:12;;;;;;;9.52;3.35;;;8.00;58.50;;;;;;4897245;29;20053;-90
2023/04/26 19:58:40;;;;;;;9.40;3.28;;;8.00;58.50;;;;;;4898564;29;20049;-91
2023/04/26 20:01:12;;;;;;;11.52;3.45;;;8.00;59.60;;;;;;4916779;29;20044;-93
2023/04/26 20:03:42;;;;;;;10.33;3.30;;;8.00;59.60;;;;;;4918320;29;20048;-92
2023/04/26 20:06:12;;;;;;;10.50;3.60;;;8.00;60.30;;;;;;4901575;29;20103;-92
2023/04/26 20:08:40;;;;;;;11.20;3.88;;;8.00;59.00;;;;;;4902079;29;20058;-91
2023/04/26 20:11:13;;;;;;;11.20;3.70;;;8.00;58.10;;;;;;4883328;29;20396;-93
2023/04/26 20:13:44;;;;;;;9.68;3.72;;;8.00;58.10;;;;;;4886802;29;20467;-94
2023/04/26 20:16:11;;;;;;;8.60;3.17;;;8.10;59.90;;;;;;4901809;29;20086;-94
2023/04/26 20:18:39;;;;;;;10.07;3.25;;;8.10;59.90;;;;;;4901869;29;20048;-94
2023/04/26 20:21:06;;;;;;;11.98;3.67;;;8.10;60.60;;;;;;4894324;29;20048;-93
2023/04/26 20:23:34;;;;;;;9.38;3.70;;;8.10;61.80;;;;;;4913959;29;20047;-94
2023/04/26 20:26:02;;;;;;;12.70;4.40;;;8.10;61.40;;;;;;4898104;29;20108;-94
2023/04/26 20:28:41;;;;;;;;;;;;;;;;;;;;;
2023/04/26 20:31:11;;;;;;;16.90;6.82;;;8.00;62.10;;;;;;4891323;29;20048;-93
2023/04/26 20:33:38;;;;;;;18.30;7.32;;;8.00;62.30;;;;;;4890769;29;20044;-92
2023/04/26 20:36:05;;;;;;;20.98;7.68;;;8.00;61.80;;;;;;4884962;29;20056;-93
2023/04/26 20:38:32;;;;;;;20.67;8.88;;;8.00;61.30;;;;;;4900918;29;20040;-92
2023/04/26 20:41:00;;;;;;;21.13;9.30;;;7.90;61.30;;;;;;4885374;29;20421;-92
2023/04/26 20:43:27;;;;;;;20.67;8.85;;;7.80;61.50;;;;;;4900646;29;20049;-91
2023/04/26 20:45:54;;;;;;;16.50;8.30;;;7.80;61.30;;;;;;4900946;29;20071;-92
2023/04/26 20:48:22;;;;;;;20.60;7.88;;;7.70;61.40;;;;;;4900971;29;20072;-92
2023/04/26 20:50:53;;;;;;;22.42;8.52;;;7.50;61.70;;;;;;4885399;29;20053;-92
2023/04/26 20:53:20;;;;;;;23.00;9.30;;;7.40;61.60;;;;;;4901021;29;20067;-92
2023/04/26 20:55:47;;;;;;;20.98;9.25;;;7.30;61.10;;;;;;4887782;29;20064;-92
2023/04/26 20:58:14;;;;;;;19.17;8.15;;;7.20;61.40;;;;;;4900728;29;20092;-92
2023/04/26 21:00:41;;;;;;;19.73;8.30;;;7.20;61.20;;;;;;4885188;29;20069;-92
2023/04/26 21:03:08;;;;;;;21.55;8.68;;;7.10;60.70;;;;;;4900593;29;20127;-92
2023/04/26 21:05:35;;;;;;;22.57;8.80;;;7.00;61.10;;;;;;4885601;29;20036;-92
2023/04/26 21:08:02;;;;;;;22.17;8.43;;;7.00;61.20;;;;;;4900748;29;20079;-92
2023/04/26 21:10:30;;;;;;;23.55;9.77;;;7.00;61.30;;;;;;4900579;29;20458;-92
2023/04/26 21:12:57;;;;;;;20.45;9.35;;;7.00;61.70;;;;;;4884039;29;20474;-92
2023/04/26 21:15:24;;;;;;;23.55;9.85;;;7.00;61.80;;;;;;4889318;29;20078;-91
2023/04/26 21:17:51;;;;;;;24.17;10.53;;;6.90;63.10;;;;;;4900666;29;20056;-92
2023/04/26 21:20:18;;;;;;;23.65;10.10;;;6.90;62.30;;;;;;4885106;29;20392;-92
2023/04/26 21:22:48;;;;;;;21.02;9.95;;;6.90;63.80;;;;;;4885535;29;20541;-92
2023/04/26 21:25:18;;;;;;;19.85;9.30;;;6.90;62.80;;;;;;4900387;29;20533;-92
2023/04/26 21:27:45;;;;;;;22.40;8.13;;;7.00;63.30;;;;;;4900090;29;20053;-93
2023/04/26 21:30:12;;;;;;;19.67;8.33;;;7.00;62.50;;;;;;4884937;29;20045;-92
2023/04/26 21:32:40;;;;;;;21.27;8.38;;;7.00;62.80;;;;;;4900237;29;20044;-92
2023/04/26 21:35:09;;;;;;;19.88;8.15;;;7.00;63.00;;;;;;4884628;29;20564;-93
2023/04/26 21:37:36;;;;;;;21.35;8.57;;;7.00;64.20;;;;;;4866221;29;20063;-92
2023/04/26 21:40:05;;;;;;;20.65;8.48;;;7.10;65.30;;;;;;4887226;29;20036;-92
2023/04/26 21:42:32;;;;;;;18.83;7.70;;;7.10;64.80;;;;;;4869019;29;20135;-92
2023/04/26 21:44:59;;;;;;;17.60;6.88;;;7.00;64.30;;;;;;4868588;29;20067;-92
2023/04/26 21:47:26;;;;;;;16.60;7.07;;;7.00;63.40;;;;;;4868490;29;20077;-93
2023/04/26 21:49:53;;;;;;;21.45;7.50;;;7.00;63.90;;;;;;4869007;29;20139;-91
2023/04/26 21:52:20;;;;;;;17.25;5.80;;;7.00;64.10;;;;;;4883840;29;20048;-92
2023/04/26 21:54:48;;;;;;;13.60;5.53;;;7.00;63.40;;;;;;4865866;29;20531;-93
2023/04/26 21:57:19;;;;;;;15.35;5.68;;;7.00;64.10;;;;;;4851449;29;20136;-92
2023/04/26 21:59:46;;;;;;;20.23;7.30;;;6.90;63.80;;;;;;4881699;29;20037;-93
2023/04/26 22:02:13;;;;;;;15.60;5.95;;;6.90;64.70;;;;;;4866267;29;20072;-93
2023/04/26 22:04:40;;;;;;;16.60;6.28;;;6.90;64.90;;;;;;4851193;29;20495;-92
2023/04/26 22:07:07;;;;;;;16.10;6.43;;;6.90;64.90;;;;;;4886652;29;20047;-92
2023/04/26 22:09:34;;;;;;;16.42;6.05;;;6.90;65.00;;;;;;4865712;29;20045;-93
2023/04/26 22:12:05;;;;;;;15.52;6.15;;;6.90;65.20;;;;;;4871199;29;20051;-93
2023/04/26 22:14:32;;;;;;;17.63;6.35;;;6.80;64.90;;;;;;4870128;29;20057;-93
2023/04/26 22:16:59;;;;;;;17.10;5.65;;;6.90;64.70;;;;;;4889201;29;20068;-93
2023/04/26 22:19:27;;;;;;;14.70;6.03;;;6.80;64.80;;;;;;4869216;29;20407;-93
2023/04/26 22:21:54;;;;;;;16.45;6.63;;;6.80;65.00;;;;;;4884277;29;20131;-93
2023/04/26 22:24:22;;;;;;;17.05;6.82;;;6.80;65.30;;;;;;4883318;29;20044;-93
2023/04/26 22:26:49;;;;;;;20.52;8.90;;;6.70;65.50;;;;;;4868900;29;20048;-93
2023/04/26 22:29:16;;;;;;;18.88;8.13;;;6.70;66.00;;;;;;4868431;29;20048;-93
2023/04/26 22:31:43;;;;;;;22.73;9.43;;;6.70;66.00;;;;;;4868650;29;20474;-93
2023/04/26 22:34:10;;;;;;;20.15;10.25;;;6.60;66.00;;;;;;4877358;29;20088;-93
2023/04/26 22:36:38;;;;;;;21.40;9.27;;;6.50;66.50;;;;;;4883759;29;20075;-93
2023/04/26 22:39:05;;;;;;;22.85;9.98;;;6.50;67.30;;;;;;4899766;29;20135;-92
2023/04/26 22:41:33;;;;;;;21.92;9.75;;;6.50;67.10;;;;;;4899417;29;20052;-92
2023/04/26 22:44:00;;;;;;;23.10;9.30;;;6.50;67.10;;;;;;4899527;29;20052;-92
2023/04/26 22:46:28;;;;;;;23.83;9.77;;;6.50;66.80;;;;;;4890365;29;20041;-93
2023/04/26 22:48:55;;;;;;;27.23;10.05;;;6.50;66.40;;;;;;4898793;29;20526;-92
2023/04/26 22:51:24;;;;;;;28.80;9.82;;;6.40;65.60;;;;;;4883475;29;20044;-93
2023/04/26 22:53:51;;;;;;;27.65;9.98;;;6.40;65.40;;;;;;4883216;29;20119;-92
2023/04/26 22:56:18;;;;;;;25.67;8.97;;;6.40;64.80;;;;;;4883091;29;20076;-93
2023/04/26 22:58:46;;;;;;;23.65;9.70;;;6.40;65.00;;;;;;4883444;29;20503;-92
2023/04/26 23:01:13;;;;;;;22.80;9.20;;;6.40;65.50;;;;;;4883275;29;20045;-92
2023/04/26 23:03:40;;;;;;;21.30;8.45;;;6.30;65.30;;;;;;4883238;29;20510;-92
2023/04/26 23:06:07;;;;;;;23.08;9.05;;;6.30;65.50;;;;;;4898442;29;20498;-92
2023/04/26 23:08:35;;;;;;;21.83;8.47;;;6.30;65.40;;;;;;4883186;29;20100;-92
2023/04/26 23:11:07;;;;;;;19.80;8.77;;;6.30;65.90;;;;;;4883216;29;20056;-93
2023/04/26 23:13:35;;;;;;;18.17;7.15;;;6.40;66.60;;;;;;4898746;29;20567;-92
2023/04/26 23:16:03;;;;;;;17.75;7.28;;;6.40;65.90;;;;;;4898486;29;20108;-93
2023/04/26 23:18:33;;;;;;;15.65;6.78;;;6.40;66.00;;;;;;4883289;29;20052;-92
2023/04/26 23:21:00;;;;;;;16.70;7.10;;;6.40;65.90;;;;;;4898403;29;20055;-94
2023/04/26 23:23:27;;;;;;;16.25;6.57;;;6.40;66.00;;;;;;4883138;29;20135;-93
2023/04/26 23:25:54;;;;;;;15.30;7.30;;;6.40;65.90;;;;;;4882818;29;20049;-92
2023/04/26 23:28:21;;;;;;;15.77;6.25;;;6.40;65.60;;;;;;4882941;29;20578;-93
2023/04/26 23:30:48;;;;;;;15.88;7.00;;;6.40;65.50;;;;;;4882993;29;20055;-93
2023/04/26 23:33:15;;;;;;;16.73;5.73;;;6.30;65.60;;;;;;4898401;29;20049;-92
2023/04/26 23:35:43;;;;;;;15.23;5.30;;;6.20;65.60;;;;;;4885408;29;20052;-92
2023/04/26 23:38:10;;;;;;;17.95;5.38;;;6.20;65.30;;;;;;4902376;29;20048;-94
2023/04/26 23:40:37;;;;;;;15.00;5.22;;;6.10;65.20;;;;;;4902218;29;20045;-93
2023/04/26 23:43:05;;;;;;;13.73;5.85;;;6.00;65.10;;;;;;4886739;29;20045;-92
2023/04/26 23:45:32;;;;;;;12.47;5.27;;;6.00;65.50;;;;;;4886795;29;20044;-92
2023/04/26 23:48:00;;;;;;;14.00;5.13;;;5.90;65.70;;;;;;4902294;29;20499;-92
2023/04/26 23:50:27;;;;;;;12.45;5.18;;;5.70;65.80;;;;;;4886412;29;20452;-93
2023/04/26 23:52:54;;;;;;;16.00;5.30;;;5.70;66.30;;;;;;4886607;29;20048;-92
2023/04/26 23:55:22;;;;;;;15.13;5.25;;;5.70;66.80;;;;;;4901677;29;20108;-92
2023/04/26 23:57:50;;;;;;;14.57;5.80;;;5.80;66.80;;;;;;4902262;29;20049;-93
